Ordynskoe, Russia
Current Conditions -  °F | °C
As of 5:00 AM on Friday 19 Dec 2014 (Local Time) from UNNT Reporting Station
Light Snow Light Snow  
Wind Chill: -2°   Ceiling: 800
Heat Index: 10°   Visibility: 4mi
Dew Point:   Wind: 9mph
Humidity: 92%   Direction: 200°SSW
Pressure: 30.59"   Gusts: NA
Location:  54.37°N, 81.95°E
Report Text: UNNT 182200Z 20004MPS 7000 -SN OVC008 M12/M13 Q1036 0781016016810160 NOSIG RMK QFE767/1022
Loading
Personal Weather Stations






























Interactive Weather Map New forecast layout! Learn more

10-Day Weather Forecast

Advertisements
Track Severe Weather on mobile